LFBL/LIG METAR and TAF weather

Enter ICAO airport designator
Station Type Date Time Source
LFBL METAR 2021/04/13 08:00 UTC NOAA

LFBL 130800Z AUTO VRB03KT CAVOK 07/M01 Q1028 NOSIG


Station Type Date Time Source
LFBL Decoded METAR 2021/04/13 08:00 UTC NOAA

Limoges, France (LFBL) 45-52N 001-11E 402M
Apr 13, 2021 - 04:00 AM EDT / 2021.04.13 0800 UTC
Wind: Variable at 3 MPH (3 KT):0
Visibility: greater than 7 mile(s):0
Temperature: 44 F (7 C)
Dew Point: 30 F (-1 C)
Relative Humidity: 56%
Pressure (altimeter): 30.36 in. Hg (1028 hPa)
ob: LFBL 130800Z AUTO VRB03KT CAVOK 07/M01 Q1028 NOSIG
cycle: 8

Station Type Date Time Source
LFBL TAF 2021/04/13 06:47 UTC NOAA

TAF LFBL 130500Z 1306/1406 04007KT CAVOK
BECMG 1320/1322 06012KT

Example: see airport list